createdAt,value
2016-09-14T07:30:57.148Z,65.75
2016-09-14T07:31:31.943Z,65.80
2016-09-14T07:33:21.130Z,65.66
2016-09-14T07:33:58.817Z,65.90
2016-09-14T07:34:57.409Z,66.27
2016-09-14T07:35:47.945Z,65.42
2016-09-14T07:36:59.556Z,65.31
2016-09-14T07:37:54.801Z,65.35
2016-09-14T07:39:53.305Z,65.71
2016-09-14T07:40:58.779Z,65.87
2016-09-14T07:42:59.641Z,65.68
2016-09-14T07:44:57.287Z,65.32
2016-09-14T07:45:45.041Z,65.25
2016-09-14T07:46:55.548Z,65.22
2016-09-14T07:47:58.181Z,65.23
2016-09-14T07:48:57.253Z,65.28
2016-09-14T07:49:56.885Z,65.27
2016-09-14T07:50:55.694Z,65.30
2016-09-14T07:51:39.290Z,65.28
2016-09-14T07:52:50.745Z,65.26
2016-09-14T07:53:46.442Z,65.32
2016-09-14T07:54:53.880Z,65.33
2016-09-14T07:56:00.952Z,65.16
2016-09-14T07:56:58.539Z,65.31
2016-09-14T07:57:58.931Z,65.36
2016-09-14T07:58:54.552Z,65.36
2016-09-14T07:59:39.292Z,65.22
2016-09-14T08:00:43.287Z,65.19
2016-09-14T08:01:50.610Z,65.09
2016-09-14T08:02:55.325Z,65.16
2016-09-14T08:03:55.122Z,65.06
2016-09-14T08:05:18.612Z,65.10
2016-09-14T08:05:47.324Z,65.05
2016-09-14T08:06:58.622Z,65.03
2016-09-14T08:07:56.399Z,65.03
2016-09-14T08:08:53.217Z,64.99
2016-09-14T08:09:55.063Z,64.95
2016-09-14T08:10:54.363Z,64.97
2016-09-14T08:11:43.192Z,64.97
2016-09-14T08:12:38.158Z,64.96
2016-09-14T08:13:48.860Z,64.94
2016-09-14T08:14:50.596Z,65.02
2016-09-14T08:15:50.278Z,65.02
2016-09-14T08:17:43.816Z,65.02
2016-09-14T08:18:54.981Z,65.03
2016-09-14T08:19:40.254Z,65.02
2016-09-14T08:20:52.823Z,65.05
2016-09-14T08:21:48.485Z,65.05
2016-09-14T08:22:51.475Z,65.15
2016-09-14T08:24:00.676Z,65.04
2016-09-14T08:24:48.603Z,65.10
2016-09-14T08:25:49.412Z,65.08
2016-09-14T08:26:50.327Z,65.13
2016-09-14T08:27:55.279Z,65.17
2016-09-14T08:28:54.752Z,65.14
2016-09-14T08:29:45.099Z,65.17
2016-09-14T08:30:48.299Z,65.13
2016-09-14T08:31:51.238Z,65.12
2016-09-14T08:32:54.431Z,65.15
2016-09-14T08:33:49.055Z,65.11
2016-09-14T08:34:49.249Z,65.09
2016-09-14T08:35:49.690Z,65.12
2016-09-14T08:37:54.712Z,65.07
2016-09-14T08:38:55.960Z,65.07
2016-09-14T08:39:55.684Z,65.04
2016-09-14T08:41:54.227Z,65.04
2016-09-14T08:42:54.893Z,65.04
2016-09-14T08:43:46.069Z,65.01
2016-09-14T08:44:49.074Z,65.00
2016-09-14T08:45:50.321Z,64.97
2016-09-14T08:46:54.531Z,64.96
2016-09-14T08:47:55.105Z,64.94
2016-09-14T08:48:49.341Z,64.95
2016-09-14T08:49:48.730Z,64.88
2016-09-14T08:50:56.447Z,64.90
2016-09-14T08:51:45.686Z,64.89
2016-09-14T08:52:55.987Z,64.87
2016-09-14T08:53:42.719Z,64.89
2016-09-14T08:54:55.253Z,64.84
2016-09-14T08:55:49.736Z,64.84
2016-09-14T08:56:48.038Z,64.84
2016-09-14T08:57:55.509Z,64.85
2016-09-14T08:58:55.678Z,64.83
2016-09-14T08:59:59.989Z,64.80
2016-09-14T09:00:57.094Z,64.81
2016-09-14T09:01:50.502Z,64.78
2016-09-14T09:02:42.608Z,64.77
2016-09-14T09:03:42.244Z,64.76
2016-09-14T09:04:57.670Z,64.78
2016-09-14T09:05:53.444Z,64.75
2016-09-14T09:08:00.608Z,64.74
2016-09-14T09:08:49.979Z,64.74
2016-09-14T09:09:55.012Z,64.73
2016-09-14T09:10:58.109Z,64.72
2016-09-14T09:11:43.836Z,64.72
2016-09-14T09:14:55.381Z,64.71
2016-09-14T09:15:58.605Z,64.70
2016-09-14T09:16:46.560Z,64.70
2016-09-14T09:17:56.005Z,64.69
2016-09-14T09:18:35.772Z,64.69
2016-09-14T09:19:54.023Z,64.67
2016-09-14T09:21:49.171Z,64.67
2016-09-14T09:24:02.524Z,64.66
2016-09-14T09:24:57.745Z,64.66
2016-09-14T09:25:38.172Z,64.67
2016-09-14T09:26:54.465Z,64.66
2016-09-14T09:29:01.247Z,64.67
2016-09-14T09:30:58.787Z,64.62
2016-09-14T09:31:56.007Z,64.62
2016-09-14T09:32:55.256Z,64.64
2016-09-14T09:33:45.302Z,64.63
2016-09-14T09:34:54.252Z,64.66
2016-09-14T09:35:55.568Z,64.70
2016-09-14T09:36:38.761Z,64.71
2016-09-14T09:38:47.460Z,64.77
2016-09-14T09:39:50.901Z,64.77
2016-09-14T09:42:56.787Z,64.82
2016-09-14T09:43:56.176Z,64.82
2016-09-14T09:45:48.195Z,64.84
2016-09-14T09:46:52.245Z,64.85
2016-09-14T09:47:13.540Z,64.86
2016-09-14T09:48:55.801Z,64.87
2016-09-14T09:49:55.529Z,64.86
2016-09-14T09:50:51.487Z,64.86
2016-09-14T09:51:55.401Z,64.87
2016-09-14T09:52:44.427Z,64.87
2016-09-14T09:54:45.370Z,64.89
2016-09-14T09:55:54.546Z,64.88
2016-09-14T09:56:54.787Z,64.88
2016-09-14T09:57:49.445Z,64.88
2016-09-14T09:58:45.183Z,64.89
2016-09-14T09:59:52.837Z,64.90
2016-09-14T10:00:49.984Z,64.89
2016-09-14T10:01:17.445Z,64.90
2016-09-14T10:02:49.074Z,64.91
2016-09-14T10:03:45.669Z,64.91
2016-09-14T10:04:50.185Z,64.90
2016-09-14T10:05:54.861Z,64.91
2016-09-14T10:06:45.624Z,64.88
2016-09-14T10:07:52.962Z,64.89
2016-09-14T10:08:47.407Z,64.83
2016-09-14T10:09:57.663Z,63.78
2016-09-14T10:10:43.801Z,63.61
2016-09-14T10:12:55.839Z,63.45
2016-09-14T10:13:56.218Z,63.40
2016-09-14T10:14:59.345Z,63.65
2016-09-14T10:16:01.077Z,64.37
2016-09-14T10:16:49.175Z,64.58
2016-09-14T10:19:54.777Z,64.75
2016-09-14T10:20:54.102Z,64.77
2016-09-14T10:21:52.403Z,64.78
2016-09-14T10:23:09.304Z,64.79
2016-09-14T10:23:56.077Z,64.79
2016-09-14T10:24:51.656Z,64.79
2016-09-14T10:29:50.988Z,64.79
2016-09-14T10:30:54.113Z,64.77
2016-09-14T10:33:55.820Z,64.77
2016-09-14T10:34:49.941Z,64.75
2016-09-14T10:36:54.844Z,64.77
2016-09-14T10:38:01.752Z,64.76
2016-09-14T10:40:55.648Z,64.75
2016-09-14T10:41:56.367Z,64.73
2016-09-14T10:42:21.296Z,64.73
2016-09-14T10:43:41.963Z,64.73
2016-09-14T10:44:39.308Z,64.72
2016-09-14T10:45:50.878Z,64.72
2016-09-14T10:47:50.961Z,64.72
2016-09-14T10:48:39.180Z,64.72
2016-09-14T10:49:39.161Z,64.72
2016-09-14T10:50:56.730Z,64.72
2016-09-14T10:52:54.421Z,64.72
2016-09-14T10:53:49.271Z,64.71
2016-09-14T10:54:43.599Z,64.69
2016-09-14T10:56:54.417Z,64.71
2016-09-14T10:57:56.765Z,64.71
2016-09-14T10:58:45.559Z,64.69
2016-09-14T10:59:40.348Z,64.70
2016-09-14T11:00:54.107Z,64.70
2016-09-14T11:02:45.113Z,64.69
2016-09-14T11:03:20.494Z,64.63
2016-09-14T11:04:51.103Z,64.68
2016-09-14T11:05:51.710Z,64.68
2016-09-14T11:06:43.816Z,64.67
2016-09-14T11:07:45.024Z,64.70
2016-09-14T11:08:48.962Z,64.72
2016-09-14T11:09:49.408Z,64.67
2016-09-14T11:11:50.230Z,64.76
2016-09-14T11:12:55.447Z,64.77
2016-09-14T11:14:48.286Z,64.78
2016-09-14T11:15:42.305Z,64.75
2016-09-14T11:16:48.738Z,64.80
2016-09-14T11:17:48.686Z,64.80
2016-09-14T11:18:54.347Z,64.80
2016-09-14T11:20:45.991Z,64.80
2016-09-14T11:23:49.475Z,64.82
2016-09-14T11:24:44.504Z,64.80
2016-09-14T11:25:53.502Z,64.83
2016-09-14T11:26:38.092Z,64.82
2016-09-14T11:27:38.606Z,64.80
2016-09-14T11:29:44.344Z,64.82
2016-09-14T11:30:43.160Z,64.79
2016-09-14T11:31:54.913Z,64.82
2016-09-14T11:32:47.371Z,64.80
2016-09-14T11:33:50.938Z,64.81
2016-09-14T11:34:32.802Z,64.82
2016-09-14T11:35:44.901Z,64.80
2016-09-14T11:37:42.992Z,64.80
2016-09-14T11:38:39.404Z,64.80
2016-09-14T11:39:44.212Z,64.79
2016-09-14T11:40:47.840Z,64.81
2016-09-14T11:41:49.833Z,64.80
2016-09-14T11:42:46.203Z,64.79
2016-09-14T11:43:45.302Z,64.81
2016-09-14T11:44:45.020Z,64.80
2016-09-14T11:45:35.515Z,64.76
2016-09-14T11:47:59.463Z,64.78
2016-09-14T11:48:45.166Z,64.76
2016-09-14T11:49:53.148Z,64.77
2016-09-14T11:50:53.276Z,64.75
2016-09-14T11:51:50.221Z,64.78
2016-09-14T11:52:52.918Z,64.76
2016-09-14T11:53:44.334Z,64.73
2016-09-14T11:55:01.845Z,64.74
2016-09-14T11:55:45.244Z,64.75
2016-09-14T11:56:49.679Z,64.71
2016-09-14T11:57:54.053Z,64.73
2016-09-14T11:58:54.708Z,64.72
2016-09-14T11:59:38.828Z,64.71
2016-09-14T12:00:53.139Z,64.69
2016-09-14T12:02:45.967Z,64.69
2016-09-14T12:04:37.079Z,64.71
2016-09-14T12:05:52.406Z,64.71
2016-09-14T12:06:50.214Z,64.70
2016-09-14T12:09:50.562Z,64.70
2016-09-14T12:10:44.953Z,64.66
2016-09-14T12:11:43.525Z,64.70
2016-09-14T12:12:49.780Z,64.68
2016-09-14T12:13:54.768Z,64.68
2016-09-14T12:14:57.989Z,64.67
2016-09-14T12:15:47.662Z,64.65
2016-09-14T12:16:50.880Z,64.68
2016-09-14T12:17:44.530Z,64.67
2016-09-14T12:18:39.180Z,64.65
2016-09-14T12:19:44.954Z,64.65
2016-09-14T12:20:37.003Z,64.66
2016-09-14T12:21:45.081Z,64.67
2016-09-14T12:23:43.644Z,64.66
2016-09-14T12:24:38.952Z,64.66
2016-09-14T12:25:44.964Z,64.64
2016-09-14T12:27:39.755Z,64.65
2016-09-14T12:28:48.963Z,64.60
2016-09-14T12:29:44.313Z,64.64
2016-09-14T12:30:51.996Z,64.64
2016-09-14T12:31:49.222Z,64.64
2016-09-14T12:32:50.720Z,64.65
2016-09-14T12:33:44.090Z,64.65
2016-09-14T12:35:40.082Z,64.64
2016-09-14T12:36:48.862Z,64.64
2016-09-14T12:37:50.038Z,64.64
2016-09-14T12:39:49.494Z,64.66
2016-09-14T12:40:54.187Z,64.67
2016-09-14T12:41:49.771Z,64.65
2016-09-14T12:42:40.768Z,64.65
2016-09-14T12:43:47.188Z,64.64
2016-09-14T12:44:48.088Z,64.65
2016-09-14T12:45:48.982Z,64.65
2016-09-14T12:46:48.899Z,64.67
2016-09-14T12:47:37.927Z,64.65
2016-09-14T12:49:57.007Z,64.65
2016-09-14T12:50:43.111Z,64.63
2016-09-14T12:51:49.714Z,64.67
2016-09-14T12:55:51.288Z,64.65
2016-09-14T12:56:53.141Z,64.66
2016-09-14T12:57:38.232Z,64.64
2016-09-14T12:58:46.513Z,64.63
2016-09-14T12:59:50.646Z,64.65
2016-09-14T13:00:46.191Z,64.64
2016-09-14T13:02:46.404Z,64.63
2016-09-14T13:03:45.419Z,64.65
2016-09-14T13:04:48.363Z,64.66
2016-09-14T13:06:50.588Z,64.66
2016-09-14T13:07:48.695Z,64.65
2016-09-14T13:10:46.565Z,64.65
2016-09-14T13:11:44.963Z,64.65
2016-09-14T13:12:54.639Z,64.66
2016-09-14T13:13:46.444Z,64.63
2016-09-14T13:14:56.802Z,64.64
2016-09-14T13:15:49.895Z,64.63
2016-09-14T13:16:44.636Z,64.65
2016-09-14T13:17:50.355Z,64.64
2016-09-14T13:19:45.338Z,64.64
2016-09-14T13:22:55.239Z,64.65
2016-09-14T13:23:44.185Z,64.66
2016-09-14T13:24:49.400Z,64.65
2016-09-14T13:25:48.396Z,64.63
2016-09-14T13:27:45.268Z,64.66
2016-09-14T13:28:49.305Z,64.68
2016-09-14T13:29:43.555Z,64.68
2016-09-14T13:30:44.676Z,64.68
2016-09-14T13:31:53.892Z,64.68
2016-09-14T13:32:59.043Z,64.69
2016-09-14T13:33:47.903Z,64.70
2016-09-14T13:35:49.485Z,64.72
2016-09-14T13:36:40.273Z,64.72
2016-09-14T13:39:54.845Z,64.69
2016-09-14T13:40:53.250Z,64.72
2016-09-14T13:41:49.536Z,64.75
2016-09-14T13:42:51.438Z,64.74
2016-09-14T13:43:45.058Z,64.73
2016-09-14T13:47:39.348Z,64.75
2016-09-14T13:48:48.151Z,64.74
2016-09-14T13:49:45.091Z,64.75
2016-09-14T13:50:46.951Z,64.74
2016-09-14T13:51:47.684Z,64.71
2016-09-14T13:52:54.455Z,64.73
2016-09-14T13:54:39.945Z,64.72
2016-09-14T13:58:45.339Z,64.76
2016-09-14T13:59:48.777Z,64.77
2016-09-14T14:01:43.504Z,64.76
2016-09-14T14:02:43.273Z,64.78
2016-09-14T14:03:52.525Z,64.78
2016-09-14T14:04:54.112Z,64.80
2016-09-14T14:05:43.491Z,64.79
2016-09-14T14:06:46.071Z,64.77
2016-09-14T14:07:49.792Z,64.77
2016-09-14T14:08:52.268Z,64.78
2016-09-14T14:09:50.870Z,64.78
2016-09-14T14:11:43.858Z,64.79
2016-09-14T14:12:49.107Z,64.78
2016-09-14T14:13:43.852Z,64.76
2016-09-14T14:14:40.764Z,64.78
2016-09-14T14:15:49.595Z,64.77
2016-09-14T14:16:40.003Z,64.77
2016-09-14T14:20:51.235Z,64.78
2016-09-14T14:22:50.923Z,64.79
2016-09-14T14:24:44.459Z,64.79
2016-09-14T14:25:38.858Z,64.80
2016-09-14T14:26:47.585Z,64.81
2016-09-14T14:27:54.983Z,64.79
2016-09-14T14:28:45.723Z,64.79
2016-09-14T14:29:45.771Z,64.82
2016-09-14T14:30:51.414Z,64.28
2016-09-14T14:31:49.648Z,64.58
2016-09-14T14:33:50.568Z,64.73
2016-09-14T14:34:44.080Z,64.70
2016-09-14T14:35:44.899Z,64.75
2016-09-14T14:37:55.929Z,64.78
2016-09-14T14:38:49.694Z,64.77
2016-09-14T14:39:46.152Z,64.76
2016-09-14T14:41:45.416Z,64.73
2016-09-14T14:46:56.928Z,64.78
2016-09-14T14:47:48.445Z,64.75
2016-09-14T14:48:53.915Z,64.75
2016-09-14T14:49:40.457Z,64.76
2016-09-14T14:50:54.990Z,64.76
2016-09-14T14:51:48.703Z,64.76
2016-09-14T14:52:53.743Z,64.77
2016-09-14T14:53:52.440Z,64.79
2016-09-14T14:55:43.024Z,64.78
2016-09-14T14:56:52.405Z,64.77
2016-09-14T14:58:46.424Z,64.75
2016-09-14T14:59:51.984Z,64.77
2016-09-14T15:00:53.842Z,64.77
2016-09-14T15:01:56.742Z,64.78
2016-09-14T15:02:45.294Z,64.77
2016-09-14T15:03:43.644Z,64.72
2016-09-14T15:04:54.450Z,64.79
2016-09-14T15:05:56.212Z,64.79
2016-09-14T15:06:56.854Z,64.77
2016-09-14T15:09:39.004Z,64.77
2016-09-14T15:10:48.346Z,64.76
2016-09-14T15:11:47.792Z,64.77
2016-09-14T15:12:44.664Z,64.78
2016-09-14T15:13:50.843Z,64.76
2016-09-14T15:15:45.134Z,64.77
2016-09-14T15:16:45.180Z,64.76
2016-09-14T15:17:45.592Z,64.77
2016-09-14T15:19:47.036Z,64.73
2016-09-14T15:20:42.125Z,64.73
2016-09-14T15:23:44.908Z,64.64
2016-09-14T15:24:45.203Z,64.61
2016-09-14T15:25:55.156Z,64.52
2016-09-14T15:27:45.213Z,64.34
2016-09-14T15:29:53.918Z,64.14
2016-09-14T15:31:47.810Z,64.02
2016-09-14T15:32:47.656Z,64.00
2016-09-14T15:33:55.568Z,63.92
2016-09-14T15:35:55.572Z,63.88
2016-09-14T15:36:44.591Z,63.83
2016-09-14T15:37:50.931Z,63.75
2016-09-14T15:39:46.936Z,63.75
2016-09-14T15:40:45.499Z,63.67
2016-09-14T15:41:46.622Z,63.64
2016-09-14T15:42:43.430Z,63.65
2016-09-14T15:43:17.675Z,63.58
2016-09-14T15:44:40.507Z,63.60
2016-09-14T15:45:45.153Z,63.56
2016-09-14T15:46:44.707Z,63.66
2016-09-14T15:47:45.893Z,63.57
2016-09-14T15:48:45.685Z,63.54
2016-09-14T15:49:39.325Z,63.63
2016-09-14T15:50:56.027Z,63.62
2016-09-14T15:51:45.167Z,63.54
2016-09-14T15:52:38.828Z,63.45
2016-09-14T15:53:58.376Z,63.51
2016-09-14T15:54:48.926Z,63.43
2016-09-14T15:55:53.847Z,63.53
2016-09-14T15:56:52.673Z,63.49
2016-09-14T15:57:48.912Z,63.59
2016-09-14T15:58:52.731Z,63.62
2016-09-14T15:59:50.236Z,63.64
2016-09-14T16:01:44.976Z,63.73
2016-09-14T16:02:49.944Z,63.82
2016-09-14T16:03:49.899Z,63.89
2016-09-14T16:05:16.608Z,63.98
2016-09-14T16:05:54.895Z,64.18
2016-09-14T16:06:45.265Z,64.32
2016-09-14T16:07:44.940Z,64.42
2016-09-14T16:08:53.440Z,64.42
2016-09-14T16:09:50.149Z,64.57
2016-09-14T16:10:45.403Z,64.54
2016-09-14T16:11:44.700Z,64.59
2016-09-14T16:13:27.077Z,64.54
2016-09-14T16:14:38.674Z,64.48
2016-09-14T16:15:16.633Z,64.48
2016-09-14T16:16:50.424Z,64.50
2016-09-14T16:17:49.645Z,64.67
2016-09-14T16:18:44.971Z,64.73
2016-09-14T16:20:54.534Z,64.74
2016-09-14T16:22:44.510Z,64.98
2016-09-14T16:23:48.786Z,64.82
2016-09-14T16:24:52.022Z,64.91
2016-09-14T16:25:50.249Z,65.02
2016-09-14T16:26:54.691Z,65.19
2016-09-14T16:27:46.178Z,65.22
2016-09-14T16:28:49.350Z,65.27
2016-09-14T16:29:48.417Z,65.40
2016-09-14T16:30:50.130Z,65.43
2016-09-14T16:31:49.937Z,65.22
2016-09-14T16:33:00.798Z,65.23
2016-09-14T16:36:53.021Z,65.42
2016-09-14T16:37:44.744Z,65.34
2016-09-14T16:38:56.002Z,65.55
2016-09-14T16:39:42.544Z,65.56
2016-09-14T16:40:53.933Z,65.69
2016-09-14T16:41:42.748Z,65.76
2016-09-14T16:43:49.416Z,65.71
2016-09-14T16:45:49.628Z,65.90
2016-09-14T16:46:46.144Z,65.92
2016-09-14T16:47:49.220Z,65.75
2016-09-14T16:48:39.437Z,65.92
2016-09-14T16:49:47.869Z,65.72
2016-09-14T16:51:44.020Z,65.99
2016-09-14T16:53:42.508Z,66.05
2016-09-14T16:54:49.961Z,66.14
2016-09-14T16:55:45.310Z,66.01
2016-09-14T16:56:43.524Z,65.90
2016-09-14T16:57:44.597Z,65.88
2016-09-14T16:58:50.042Z,66.27
2016-09-14T16:59:52.147Z,66.16
2016-09-14T17:01:33.945Z,65.97
2016-09-14T17:02:48.552Z,66.19
2016-09-14T17:03:29.640Z,66.06
2016-09-14T17:04:33.251Z,66.03
2016-09-14T17:05:52.404Z,66.18
2016-09-14T17:06:44.092Z,66.09
2016-09-14T17:08:44.166Z,66.01
2016-09-14T17:09:48.465Z,65.83
2016-09-14T17:10:49.592Z,66.02
2016-09-14T17:11:48.385Z,65.98
2016-09-14T17:12:51.880Z,65.82
2016-09-14T17:13:54.867Z,66.12
2016-09-14T17:14:44.614Z,65.77
2016-09-14T17:15:53.572Z,65.86
2016-09-14T17:16:49.862Z,65.93
2016-09-14T17:17:49.356Z,65.93
2016-09-14T17:19:49.150Z,66.35
2016-09-14T17:21:45.334Z,65.85
2016-09-14T17:22:41.833Z,66.00
2016-09-14T17:23:55.035Z,65.83
2016-09-14T17:24:48.863Z,65.75
2016-09-14T17:25:54.705Z,65.61
2016-09-14T17:28:54.944Z,65.47
2016-09-14T17:29:55.800Z,65.92
2016-09-14T17:31:44.855Z,65.77
2016-09-14T17:32:51.791Z,65.64
2016-09-14T17:33:48.807Z,65.47
2016-09-14T17:35:49.862Z,65.41
2016-09-14T17:36:45.625Z,65.61
2016-09-14T17:37:45.461Z,65.73
2016-09-14T17:38:33.160Z,65.84
2016-09-14T17:39:33.110Z,65.84
2016-09-14T17:40:37.487Z,65.82
2016-09-14T17:41:30.311Z,65.81
2016-09-14T17:42:29.751Z,65.79
2016-09-14T17:43:34.684Z,65.82
2016-09-14T17:44:34.555Z,65.54
2016-09-14T17:45:39.085Z,65.72
2016-09-14T17:46:45.109Z,66.02
2016-09-14T17:47:36.014Z,65.99
2016-09-14T17:48:39.494Z,66.09
2016-09-14T17:49:43.447Z,66.12
2016-09-14T17:50:46.489Z,65.60
2016-09-14T17:51:44.811Z,65.96
2016-09-14T17:52:56.190Z,65.78
2016-09-14T17:53:43.127Z,65.47
2016-09-14T17:54:36.836Z,65.39
2016-09-14T17:55:42.928Z,65.46
2016-09-14T17:56:32.192Z,65.45
2016-09-14T17:57:43.391Z,65.39
2016-09-14T17:58:40.133Z,65.37
2016-09-14T17:59:28.118Z,65.35
2016-09-14T18:00:33.903Z,65.37
2016-09-14T18:01:33.177Z,65.46
2016-09-14T18:02:40.355Z,65.32
2016-09-14T18:03:37.943Z,65.33
2016-09-14T18:04:29.332Z,65.26
2016-09-14T18:05:26.330Z,65.26
2016-09-14T18:06:31.425Z,65.30
2016-09-14T18:07:34.137Z,65.84
2016-09-14T18:08:34.275Z,65.61
2016-09-14T18:09:36.500Z,65.61
2016-09-14T18:10:32.947Z,65.62
2016-09-14T18:11:42.857Z,65.61
2016-09-14T18:12:31.069Z,65.70
2016-09-14T18:13:43.796Z,65.85
2016-09-14T18:14:27.785Z,65.76
2016-09-14T18:15:37.999Z,65.86
2016-09-14T18:16:22.268Z,66.05
2016-09-14T18:17:37.426Z,66.05
2016-09-14T18:18:34.003Z,66.03
2016-09-14T18:19:30.125Z,66.19
2016-09-14T18:20:30.012Z,65.95
2016-09-14T18:21:25.096Z,65.97
2016-09-14T18:22:31.084Z,65.97
2016-09-14T18:23:33.315Z,66.01
2016-09-14T18:24:34.056Z,66.00
2016-09-14T18:25:30.041Z,66.02
2016-09-14T18:26:36.720Z,65.99
2016-09-14T18:27:48.599Z,66.14
2016-09-14T18:28:45.373Z,66.21
2016-09-14T18:29:39.576Z,66.23
2016-09-14T18:30:50.033Z,66.25
2016-09-14T18:31:30.618Z,66.23
2016-09-14T18:32:43.506Z,66.28
2016-09-14T18:33:31.928Z,66.26
2016-09-14T18:34:38.892Z,66.23
2016-09-14T18:35:33.152Z,66.20
2016-09-14T18:36:30.631Z,66.22
2016-09-14T18:37:43.281Z,66.28
2016-09-14T18:38:28.159Z,66.26
2016-09-14T18:39:27.153Z,66.28
2016-09-14T18:40:34.828Z,66.30
2016-09-14T18:41:34.980Z,66.35
2016-09-14T18:42:27.826Z,66.33
2016-09-14T18:43:13.901Z,66.31
2016-09-14T18:44:38.231Z,66.32
2016-09-14T18:45:32.887Z,66.30
2016-09-14T18:46:27.248Z,66.27
2016-09-14T18:47:25.915Z,66.23
2016-09-14T18:48:18.346Z,66.23
2016-09-14T18:49:23.949Z,66.26
2016-09-14T18:50:33.027Z,66.14
2016-09-14T18:51:32.589Z,65.30
2016-09-14T18:52:39.358Z,65.05
2016-09-14T18:53:41.887Z,64.92
2016-09-14T18:54:48.155Z,64.86
2016-09-14T18:55:22.090Z,64.82
2016-09-14T18:56:37.106Z,64.84
2016-09-14T18:57:36.620Z,64.84
2016-09-14T18:58:43.618Z,64.82
2016-09-14T18:59:38.395Z,64.87
2016-09-14T19:00:40.074Z,65.19
2016-09-14T19:01:16.200Z,65.84
2016-09-14T19:02:26.556Z,66.07
2016-09-14T19:03:32.845Z,66.18
2016-09-14T19:04:33.368Z,66.25
2016-09-14T19:05:33.584Z,66.32
2016-09-14T19:06:15.802Z,66.37
2016-09-14T19:07:38.677Z,66.39
2016-09-14T19:09:16.087Z,66.45
2016-09-14T19:10:41.864Z,66.48
2016-09-14T19:11:34.240Z,66.51
2016-09-14T19:12:40.406Z,66.55
2016-09-14T19:13:39.873Z,66.61
2016-09-14T19:14:38.093Z,66.55
2016-09-14T19:15:45.303Z,66.57
2016-09-14T19:16:31.769Z,66.69
2016-09-14T19:18:37.428Z,66.72
2016-09-14T19:19:47.674Z,66.77
2016-09-14T19:20:39.551Z,66.74
2016-09-14T19:21:42.218Z,66.79
2016-09-14T19:22:24.451Z,66.75
2016-09-14T19:23:44.069Z,66.75
2016-09-14T19:24:41.310Z,66.78
2016-09-14T19:25:45.545Z,66.71
2016-09-14T19:26:48.482Z,66.72
2016-09-14T19:28:15.214Z,66.76
2016-09-14T19:29:45.086Z,66.68
2016-09-14T19:30:16.893Z,66.76
2016-09-14T19:31:20.122Z,66.76
2016-09-14T19:32:42.493Z,66.71
2016-09-14T19:33:47.946Z,66.83
2016-09-14T19:34:42.954Z,66.77
2016-09-14T19:35:44.036Z,66.81
2016-09-14T19:36:46.352Z,66.71
2016-09-14T19:37:45.149Z,66.69
2016-09-14T19:38:46.189Z,66.77
2016-09-14T19:39:39.187Z,66.86
2016-09-14T19:40:45.857Z,66.88
2016-09-14T19:41:43.445Z,66.85
2016-09-14T19:42:49.440Z,66.92
2016-09-14T19:43:49.169Z,66.92
2016-09-14T19:44:44.052Z,66.90
2016-09-14T19:45:42.251Z,66.82
2016-09-14T19:46:40.810Z,66.85
2016-09-14T19:48:48.188Z,66.86
2016-09-14T19:49:57.548Z,66.80
2016-09-14T19:50:45.359Z,66.85
2016-09-14T19:51:50.382Z,66.84
2016-09-14T19:52:40.352Z,66.79
2016-09-14T19:54:37.564Z,66.76
2016-09-14T19:55:15.612Z,66.86
2016-09-14T19:56:17.591Z,66.77
2016-09-14T19:57:14.501Z,66.77
2016-09-14T19:58:29.816Z,66.83
2016-09-14T19:59:22.660Z,66.90
2016-09-14T20:00:28.299Z,66.89
2016-09-14T20:01:19.586Z,66.82
2016-09-14T20:02:21.915Z,66.87
2016-09-14T20:03:15.537Z,66.79
2016-09-14T20:04:23.102Z,66.74
2016-09-14T20:05:21.607Z,66.80
2016-09-14T20:06:17.872Z,66.75
2016-09-14T20:07:22.385Z,66.83
2016-09-14T20:08:25.533Z,66.77
2016-09-14T20:09:16.845Z,66.82
2016-09-14T20:10:34.449Z,66.83
2016-09-14T20:11:37.425Z,66.82
2016-09-14T20:12:21.521Z,66.86
2016-09-14T20:13:14.880Z,66.79
2016-09-14T20:14:12.823Z,66.77
2016-09-14T20:15:22.108Z,66.84
2016-09-14T20:16:19.177Z,66.79
2016-09-14T20:17:20.798Z,66.81
2016-09-14T20:18:31.741Z,66.82
2016-09-14T20:19:33.134Z,66.79
2016-09-14T20:20:16.624Z,66.83
2016-09-14T20:21:23.353Z,66.80
2016-09-14T20:22:16.076Z,66.86
2016-09-14T20:23:29.964Z,66.81
2016-09-14T20:24:26.907Z,66.77
2016-09-14T20:25:26.193Z,66.84
2016-09-14T20:26:21.633Z,66.81
2016-09-14T20:27:24.727Z,66.76
2016-09-14T20:28:24.875Z,66.86
2016-09-14T20:29:23.615Z,66.84
2016-09-14T20:30:33.128Z,66.84
2016-09-14T20:31:33.769Z,66.89
2016-09-14T20:32:28.737Z,66.86
2016-09-14T20:33:24.796Z,66.81
2016-09-14T20:34:30.804Z,66.84
2016-09-14T20:35:27.275Z,66.86
2016-09-14T20:36:36.565Z,66.68
2016-09-14T20:37:40.118Z,66.79
2016-09-14T20:38:42.803Z,66.78
2016-09-14T20:39:28.941Z,66.85
2016-09-14T20:40:32.239Z,66.84
2016-09-14T20:41:32.812Z,66.87
2016-09-14T20:42:44.750Z,66.84
2016-09-14T20:43:27.772Z,66.84
2016-09-14T20:44:22.275Z,66.85
2016-09-14T20:45:32.152Z,67.12
2016-09-14T20:46:26.398Z,66.95
2016-09-14T20:47:22.001Z,66.91
2016-09-14T20:48:30.156Z,66.85
2016-09-14T20:49:22.320Z,66.81
2016-09-14T20:50:29.454Z,66.90
2016-09-14T20:51:25.275Z,66.91
2016-09-14T20:52:13.572Z,66.90
2016-09-14T20:53:35.215Z,66.67
2016-09-14T20:54:36.503Z,66.70
2016-09-14T20:55:28.913Z,66.82
2016-09-14T20:56:30.011Z,66.79
2016-09-14T20:57:21.949Z,66.85
2016-09-14T20:58:22.658Z,66.95
2016-09-14T20:59:30.971Z,67.08
2016-09-14T21:00:22.453Z,67.16
2016-09-14T21:01:26.781Z,67.24
2016-09-14T21:02:33.641Z,67.19
2016-09-14T21:03:36.512Z,66.91
2016-09-14T21:04:21.041Z,67.13
2016-09-14T21:05:28.807Z,66.87
2016-09-14T21:06:22.493Z,66.58
2016-09-14T21:07:27.167Z,66.58
2016-09-14T21:08:33.690Z,66.34
2016-09-14T21:09:22.664Z,67.03
2016-09-14T21:10:31.267Z,66.81
2016-09-14T21:11:33.672Z,66.91
2016-09-14T21:12:17.833Z,66.77
2016-09-14T21:13:28.250Z,67.05
2016-09-14T21:14:27.240Z,67.06
2016-09-14T21:15:20.756Z,67.14
2016-09-14T21:16:27.825Z,67.02
2016-09-14T21:17:45.353Z,66.89
2016-09-14T21:18:49.912Z,67.17
2016-09-14T21:19:45.284Z,67.07
2016-09-14T21:20:50.595Z,67.11
2016-09-14T21:21:45.061Z,67.34
2016-09-14T21:22:19.550Z,67.15
2016-09-14T21:23:38.692Z,66.91
2016-09-14T21:24:48.065Z,67.53
2016-09-14T21:25:48.165Z,67.45
2016-09-14T21:27:44.614Z,67.34
2016-09-14T21:28:50.784Z,67.56
2016-09-14T21:29:46.100Z,67.50
2016-09-14T21:30:43.324Z,67.51
2016-09-14T21:32:03.934Z,67.30
2016-09-14T21:32:40.247Z,67.03
2016-09-14T21:33:48.297Z,67.01
2016-09-14T21:37:24.239Z,66.82
2016-09-14T21:38:35.934Z,66.86
2016-09-14T21:39:52.575Z,66.84
2016-09-14T21:41:53.224Z,66.87
2016-09-14T21:42:42.493Z,66.86
2016-09-14T21:43:44.219Z,66.90
2016-09-14T21:45:51.052Z,66.95
2016-09-14T21:46:50.501Z,67.05
2016-09-14T21:47:22.431Z,67.06
2016-09-14T21:48:29.873Z,67.14
2016-09-14T21:50:49.410Z,67.20
2016-09-14T21:52:25.148Z,67.29
2016-09-14T21:53:53.989Z,67.32
2016-09-14T21:55:58.737Z,67.36
2016-09-14T21:56:49.749Z,67.32
2016-09-14T21:57:22.119Z,67.34
2016-09-14T21:58:55.562Z,67.33
2016-09-14T22:00:46.546Z,67.31
2016-09-14T22:02:23.005Z,67.30
2016-09-14T22:04:56.298Z,67.29
2016-09-14T22:05:54.188Z,67.30
2016-09-14T22:06:56.833Z,67.28
2016-09-14T22:07:51.053Z,67.28
2016-09-14T22:09:49.277Z,67.26
2016-09-14T22:12:51.206Z,67.22
2016-09-14T22:13:59.832Z,67.27
2016-09-14T22:14:45.103Z,67.28
2016-09-14T22:15:54.734Z,67.28
2016-09-14T22:17:29.147Z,67.26
2016-09-14T22:18:44.627Z,67.08
2016-09-14T22:19:50.876Z,67.10
2016-09-14T22:20:55.592Z,67.10
2016-09-14T22:22:44.795Z,67.14
2016-09-14T22:23:40.366Z,67.14
2016-09-14T22:24:27.092Z,67.26
2016-09-14T22:25:47.196Z,67.23
2016-09-14T22:26:53.406Z,67.21
2016-09-14T22:27:25.947Z,67.18
2016-09-14T22:29:45.383Z,67.13
2016-09-14T22:30:42.375Z,67.16
2016-09-14T22:31:55.312Z,67.15
2016-09-14T22:32:18.167Z,67.10
2016-09-14T22:33:48.600Z,67.13
2016-09-14T22:37:51.930Z,67.38
2016-09-14T22:38:54.906Z,67.16
2016-09-14T22:39:44.912Z,67.19
2016-09-14T22:40:45.368Z,67.12
2016-09-14T22:41:50.685Z,67.11
2016-09-14T22:43:55.181Z,67.00
2016-09-14T22:44:45.956Z,67.04
2016-09-14T22:45:37.410Z,67.03
2016-09-14T22:47:28.997Z,66.99
2016-09-14T22:48:43.270Z,66.98